createdAt,value
2022-08-20T00:03:29.356Z,20.51
2022-08-20T00:07:33.070Z,20.50
2022-08-20T00:11:38.163Z,20.51
2022-08-20T00:15:42.414Z,20.50
2022-08-20T00:19:46.306Z,20.49
2022-08-20T00:23:52.443Z,20.47
2022-08-20T00:27:58.375Z,20.44
2022-08-20T00:32:01.697Z,20.41
2022-08-20T00:36:10.032Z,20.39
2022-08-20T00:40:22.274Z,20.38
2022-08-20T00:44:28.595Z,20.35
2022-08-20T00:48:34.817Z,20.32
2022-08-20T00:52:38.621Z,20.27
2022-08-20T00:56:44.666Z,20.21
2022-08-20T01:00:51.327Z,20.15
2022-08-20T01:04:56.204Z,20.07
2022-08-20T01:09:02.618Z,20.03
2022-08-20T01:13:10.646Z,20.00
2022-08-20T01:17:26.084Z,19.99
2022-08-20T01:21:32.915Z,19.97
2022-08-20T01:25:46.710Z,19.98
2022-08-20T01:29:51.361Z,19.99
2022-08-20T01:33:56.644Z,19.99
2022-08-20T01:38:00.356Z,20.00
2022-08-20T01:42:10.628Z,19.99
2022-08-20T01:46:14.878Z,19.98
2022-08-20T01:50:25.347Z,19.98
2022-08-20T01:54:30.350Z,19.93
2022-08-20T01:58:40.077Z,19.89
2022-08-20T02:02:45.037Z,19.82
2022-08-20T02:06:56.581Z,19.74
2022-08-20T02:11:01.046Z,19.66
2022-08-20T02:15:08.196Z,19.59
2022-08-20T02:19:14.586Z,19.54
2022-08-20T02:23:18.221Z,19.49
2022-08-20T02:27:24.024Z,19.45
2022-08-20T02:31:32.953Z,19.40
2022-08-20T02:35:39.757Z,19.36
2022-08-20T02:39:43.185Z,19.29
2022-08-20T02:43:47.149Z,19.26
2022-08-20T02:47:53.107Z,19.26
2022-08-20T02:51:56.643Z,19.23
2022-08-20T02:56:00.547Z,19.22
2022-08-20T03:00:05.967Z,19.20
2022-08-20T03:04:11.036Z,19.20
2022-08-20T03:08:16.437Z,19.17
2022-08-20T03:12:19.697Z,19.15
2022-08-20T03:16:23.221Z,19.10
2022-08-20T03:20:29.140Z,19.08
2022-08-20T03:24:33.215Z,19.03
2022-08-20T03:28:37.493Z,19.01
2022-08-20T03:32:42.305Z,19.01
2022-08-20T03:36:50.390Z,19.05
2022-08-20T03:40:54.046Z,19.11
2022-08-20T03:44:59.310Z,19.25
2022-08-20T03:49:02.883Z,19.41
2022-08-20T03:53:08.263Z,19.61
2022-08-20T03:57:17.346Z,19.80
2022-08-20T04:01:45.009Z,20.00
2022-08-20T04:05:45.154Z,20.17
2022-08-20T04:09:50.218Z,20.32
2022-08-20T04:13:54.017Z,20.45
2022-08-20T04:17:57.857Z,20.56
2022-08-20T04:22:02.205Z,20.63
2022-08-20T04:26:07.550Z,20.67
2022-08-20T04:30:12.798Z,20.75
2022-08-20T04:34:20.025Z,20.79
2022-08-20T04:38:24.219Z,20.78
2022-08-20T04:42:29.884Z,20.80
2022-08-20T04:46:33.705Z,20.77
2022-08-20T04:50:39.408Z,20.76
2022-08-20T04:54:44.321Z,20.73
2022-08-20T04:58:49.459Z,20.70
2022-08-20T05:02:52.910Z,20.62
2022-08-20T05:06:56.456Z,20.66
2022-08-20T05:11:24.993Z,20.67
2022-08-20T05:15:26.605Z,20.75
2022-08-20T05:19:30.818Z,20.76
2022-08-20T05:23:34.699Z,20.77
2022-08-20T05:27:38.589Z,20.83
2022-08-20T05:31:43.713Z,20.89
2022-08-20T05:35:47.964Z,20.97
2022-08-20T05:39:51.732Z,21.04
2022-08-20T05:43:54.867Z,21.11
2022-08-20T05:47:59.995Z,21.17
2022-08-20T05:52:06.947Z,21.20
2022-08-20T05:56:11.559Z,21.23
2022-08-20T06:00:16.519Z,21.27
2022-08-20T06:04:29.156Z,21.30
2022-08-20T06:08:34.163Z,21.27
2022-08-20T06:12:37.636Z,21.33
2022-08-20T06:16:56.304Z,21.32
2022-08-20T06:21:03.091Z,21.37
2022-08-20T06:25:09.179Z,21.38
2022-08-20T06:29:12.276Z,21.36
2022-08-20T06:33:16.239Z,21.29
2022-08-20T06:37:27.419Z,21.27
2022-08-20T06:41:37.170Z,21.17
2022-08-20T06:45:41.901Z,21.11
2022-08-20T06:49:46.179Z,21.11
2022-08-20T06:53:51.200Z,21.07
2022-08-20T06:58:01.571Z,21.08
2022-08-20T07:02:04.875Z,21.12
2022-08-20T07:06:08.990Z,21.14
2022-08-20T07:10:17.411Z,21.17
2022-08-20T07:14:21.075Z,21.17
2022-08-20T07:18:28.335Z,21.16
2022-08-20T07:22:32.339Z,21.13
2022-08-20T07:26:37.490Z,21.12
2022-08-20T07:30:59.434Z,21.11
2022-08-20T07:35:18.610Z,21.13
2022-08-20T07:39:22.321Z,21.10
2022-08-20T07:43:28.492Z,21.07
2022-08-20T07:47:34.620Z,21.11
2022-08-20T07:51:38.484Z,21.12
2022-08-20T07:55:42.169Z,21.11
2022-08-20T08:00:03.137Z,21.15
2022-08-20T08:04:08.089Z,21.13
2022-08-20T08:08:14.852Z,21.12
2022-08-20T08:12:20.054Z,21.14
2022-08-20T08:16:25.770Z,21.18
2022-08-20T08:20:29.299Z,21.22
2022-08-20T08:24:32.408Z,21.26
2022-08-20T08:28:37.583Z,21.27
2022-08-20T08:33:03.804Z,21.29
2022-08-20T08:37:07.883Z,21.31
2022-08-20T08:41:19.776Z,21.42
2022-08-20T08:45:24.202Z,21.55
2022-08-20T08:49:38.194Z,21.71
2022-08-20T08:53:47.227Z,21.82
2022-08-20T08:57:51.353Z,21.94
2022-08-20T09:01:58.455Z,22.01
2022-08-20T09:06:05.327Z,22.09
2022-08-20T09:10:09.833Z,22.12
2022-08-20T09:14:14.003Z,22.18
2022-08-20T09:18:17.059Z,22.17
2022-08-20T09:22:26.614Z,22.32
2022-08-20T09:26:30.318Z,22.42
2022-08-20T09:30:33.595Z,22.52
2022-08-20T09:34:38.953Z,22.60
2022-08-20T09:38:43.887Z,22.71
2022-08-20T09:42:47.653Z,22.77
2022-08-20T09:46:50.838Z,22.79
2022-08-20T09:50:54.362Z,22.76
2022-08-20T09:55:01.984Z,22.75
2022-08-20T09:59:06.003Z,22.72
2022-08-20T10:03:09.267Z,22.68
2022-08-20T10:07:12.828Z,22.69
2022-08-20T10:11:20.950Z,22.65
2022-08-20T10:15:24.587Z,22.64
2022-08-20T10:19:32.655Z,22.62
2022-08-20T10:23:35.854Z,22.59
2022-08-20T10:27:41.168Z,22.60
2022-08-20T10:31:45.007Z,22.64
2022-08-20T10:35:48.719Z,22.78
2022-08-20T10:39:54.351Z,22.96
2022-08-20T10:43:59.755Z,23.14
2022-08-20T10:48:03.848Z,23.31
2022-08-20T10:52:07.623Z,23.42
2022-08-20T10:56:15.780Z,23.53
2022-08-20T11:00:20.976Z,23.69
2022-08-20T11:04:24.196Z,23.86
2022-08-20T11:08:34.329Z,23.96
2022-08-20T11:12:39.854Z,23.96
2022-08-20T11:16:48.175Z,23.87
2022-08-20T11:20:51.947Z,23.76
2022-08-20T11:24:55.947Z,23.60
2022-08-20T11:28:59.584Z,23.40
2022-08-20T11:33:04.549Z,23.26
2022-08-20T11:37:08.229Z,23.14
2022-08-20T11:41:11.882Z,23.10
2022-08-20T11:45:16.446Z,23.05
2022-08-20T11:49:21.838Z,23.00
2022-08-20T11:53:25.019Z,22.94
2022-08-20T11:57:30.353Z,22.92
2022-08-20T12:01:34.165Z,22.92
2022-08-20T12:05:39.496Z,22.90
2022-08-20T12:09:50.787Z,22.94
2022-08-20T12:13:59.815Z,23.03
2022-08-20T12:18:09.220Z,23.17
2022-08-20T12:22:23.146Z,23.31
2022-08-20T12:26:28.512Z,23.49
2022-08-20T12:30:32.531Z,23.67
2022-08-20T12:34:36.536Z,23.77
2022-08-20T12:38:41.459Z,23.78
2022-08-20T12:42:45.849Z,23.75
2022-08-20T12:46:49.163Z,23.72
2022-08-20T12:50:52.871Z,23.67
2022-08-20T12:54:58.883Z,23.65
2022-08-20T12:59:02.336Z,23.62
2022-08-20T13:03:08.120Z,23.67
2022-08-20T13:07:13.265Z,23.79
2022-08-20T13:11:17.937Z,23.99
2022-08-20T13:15:22.926Z,24.16
2022-08-20T13:19:26.687Z,24.27
2022-08-20T13:23:29.889Z,24.33
2022-08-20T13:27:38.851Z,24.28
2022-08-20T13:31:42.889Z,24.22
2022-08-20T13:35:46.562Z,24.18
2022-08-20T13:39:49.984Z,24.09
2022-08-20T13:43:55.322Z,23.99
2022-08-20T13:47:58.955Z,23.85
2022-08-20T13:52:02.547Z,23.73
2022-08-20T13:56:06.599Z,23.58
2022-08-20T14:00:16.694Z,23.48
2022-08-20T14:04:20.236Z,23.34
2022-08-20T14:08:25.839Z,23.25
2022-08-20T14:12:30.985Z,23.19
2022-08-20T14:16:38.001Z,23.12
2022-08-20T14:20:41.846Z,23.07
2022-08-20T14:24:50.245Z,22.98
2022-08-20T14:28:53.898Z,22.94
2022-08-20T14:32:58.957Z,22.85
2022-08-20T14:37:11.885Z,22.80
2022-08-20T14:41:15.433Z,22.73
2022-08-20T14:45:19.695Z,22.69
2022-08-20T14:49:24.876Z,22.64
2022-08-20T14:53:28.064Z,22.58
2022-08-20T14:57:31.603Z,22.54
2022-08-20T15:01:35.144Z,22.52
2022-08-20T15:05:41.281Z,22.48
2022-08-20T15:09:44.551Z,22.46
2022-08-20T15:13:48.113Z,22.43
2022-08-20T15:17:53.818Z,22.41
2022-08-20T15:21:59.016Z,22.38
2022-08-20T15:26:02.970Z,22.36
2022-08-20T15:30:08.872Z,22.29
2022-08-20T15:34:17.615Z,22.22
2022-08-20T15:38:22.673Z,22.16
2022-08-20T15:42:26.444Z,22.09
2022-08-20T15:46:31.627Z,22.02
2022-08-20T15:50:58.060Z,21.93
2022-08-20T15:55:03.853Z,21.84
2022-08-20T15:59:20.459Z,21.78
2022-08-20T16:03:52.259Z,21.74
2022-08-20T16:08:23.383Z,21.69
2022-08-20T16:12:35.187Z,21.65
2022-08-20T16:16:45.558Z,21.60
2022-08-20T16:20:51.578Z,21.52
2022-08-20T16:24:56.315Z,21.46
2022-08-20T16:29:11.386Z,21.40
2022-08-20T16:33:22.192Z,21.39
2022-08-20T16:37:31.280Z,21.38
2022-08-20T16:41:41.486Z,21.37
2022-08-20T16:45:51.972Z,21.34
2022-08-20T16:50:04.835Z,21.33
2022-08-20T16:54:08.381Z,21.31
2022-08-20T16:58:11.742Z,21.23
2022-08-20T17:02:21.681Z,21.18
2022-08-20T17:06:30.850Z,21.11
2022-08-20T17:10:36.806Z,21.09
2022-08-20T17:14:49.770Z,21.05
2022-08-20T17:18:56.094Z,21.08
2022-08-20T17:23:12.330Z,21.10
2022-08-20T17:27:30.844Z,21.09
2022-08-20T17:31:38.814Z,21.07
2022-08-20T17:35:50.843Z,21.08
2022-08-20T17:39:57.112Z,21.09
2022-08-20T17:44:02.380Z,21.09
2022-08-20T17:48:09.750Z,21.07
2022-08-20T17:52:24.960Z,21.05
2022-08-20T17:56:36.476Z,21.04
2022-08-20T18:00:40.068Z,21.02
2022-08-20T18:04:45.178Z,20.95
2022-08-20T18:08:58.805Z,21.00
2022-08-20T18:13:13.061Z,21.02
2022-08-20T18:17:28.888Z,21.03
2022-08-20T18:21:57.793Z,21.02
2022-08-20T18:26:09.951Z,21.04
2022-08-20T18:30:19.856Z,21.06
2022-08-20T18:34:37.875Z,21.01
2022-08-20T18:38:44.007Z,21.03
2022-08-20T18:42:49.585Z,21.06
2022-08-20T18:46:55.448Z,21.05
2022-08-20T18:55:33.963Z,21.04
2022-08-20T18:59:44.736Z,21.03
2022-08-20T19:03:52.150Z,21.01
2022-08-20T19:07:58.245Z,20.95
2022-08-20T19:12:18.051Z,20.96
2022-08-20T19:16:28.050Z,20.95
2022-08-20T19:20:34.739Z,20.93
2022-08-20T19:24:43.765Z,20.90
2022-08-20T19:28:49.934Z,20.91
2022-08-20T19:32:54.655Z,20.86
2022-08-20T19:37:05.200Z,20.85
2022-08-20T19:41:31.049Z,20.82
2022-08-20T19:45:40.484Z,20.83
2022-08-20T19:49:58.735Z,20.81
2022-08-20T19:54:04.446Z,20.79
2022-08-20T19:58:25.978Z,20.79
2022-08-20T20:02:33.162Z,20.78
2022-08-20T20:06:42.810Z,20.76
2022-08-20T20:10:53.960Z,20.72
2022-08-20T20:14:57.471Z,20.71
2022-08-20T20:19:24.787Z,20.70
2022-08-20T20:23:45.792Z,20.69
2022-08-20T20:27:51.694Z,20.66
2022-08-20T20:31:59.128Z,20.65
2022-08-20T20:36:05.766Z,20.63
2022-08-20T20:40:21.238Z,20.63
2022-08-20T20:44:27.457Z,20.51
2022-08-20T20:48:40.145Z,20.62
2022-08-20T20:53:01.905Z,20.59
2022-08-20T20:57:09.469Z,20.59
2022-08-20T21:01:12.812Z,20.58
2022-08-20T21:05:17.657Z,20.56
2022-08-20T21:09:21.444Z,20.54
2022-08-20T21:13:26.569Z,20.53
2022-08-20T21:17:29.922Z,20.51
2022-08-20T21:21:33.205Z,20.41
2022-08-20T21:25:37.183Z,20.44
2022-08-20T21:29:41.820Z,20.40
2022-08-20T21:33:45.173Z,20.40
2022-08-20T21:37:48.385Z,20.35
2022-08-20T21:41:51.833Z,20.35
2022-08-20T21:45:56.410Z,20.34
2022-08-20T21:49:59.975Z,20.31
2022-08-20T21:54:03.385Z,20.28
2022-08-20T21:58:07.197Z,20.30
2022-08-20T22:02:12.500Z,20.29
2022-08-20T22:06:16.350Z,20.29
2022-08-20T22:10:20.386Z,20.29
2022-08-20T22:14:24.673Z,20.28
2022-08-20T22:18:29.876Z,20.27
2022-08-20T22:22:33.258Z,20.27
2022-08-20T22:26:38.660Z,20.28
2022-08-20T22:30:43.016Z,20.27
2022-08-20T22:34:48.086Z,20.26
2022-08-20T22:38:54.674Z,20.26
2022-08-20T22:42:58.078Z,20.20
2022-08-20T22:47:06.907Z,20.24
2022-08-20T22:51:16.354Z,20.23
2022-08-20T22:55:20.106Z,20.24
2022-08-20T22:59:25.112Z,20.23
2022-08-20T23:03:40.187Z,20.23
2022-08-20T23:07:46.609Z,20.25
2022-08-20T23:11:51.919Z,20.23
2022-08-20T23:15:55.605Z,20.23
2022-08-20T23:19:59.775Z,20.22
2022-08-20T23:24:05.058Z,20.21
2022-08-20T23:28:09.767Z,20.21
2022-08-20T23:32:14.249Z,20.21
2022-08-20T23:36:24.499Z,20.23
2022-08-20T23:40:30.996Z,20.23
2022-08-20T23:44:34.487Z,20.23
2022-08-20T23:48:38.476Z,20.25
2022-08-20T23:52:41.746Z,20.26
2022-08-20T23:56:46.961Z,20.26
